Time;durP1;ratioP1;P1;durP2;ratioP2;P2;SDS_P1;SDS_P2;PMS_P1;PMS_P2;Temp;Humidity;BMP_temperature;BMP_pressure;BME280_temperature;BME280_humidity;BME280_pressure;Samples;Min_cycle;Max_cycle;Signal;HPM_P1;HPM_P2
2021/04/07 00:00:21;;;;;;;5.90;2.40;;;0.60;99.90;;;;;;5002124;28;20018;-80
2021/04/07 00:02:48;;;;;;;6.72;2.90;;;0.60;99.90;;;;;;5001800;28;20695;-78
2021/04/07 00:05:16;;;;;;;8.93;3.25;;;0.60;99.90;;;;;;5005616;28;20034;-80
2021/04/07 00:07:43;;;;;;;7.47;3.35;;;0.60;99.90;;;;;;5003295;28;20033;-79
2021/04/07 00:10:12;;;;;;;7.55;2.60;;;0.60;99.90;;;;;;5005415;28;20084;-78
2021/04/07 00:12:38;;;;;;;3.97;2.67;;;0.60;99.90;;;;;;5004169;28;20112;-81
2021/04/07 00:15:25;;;;;;;6.32;2.78;;;0.60;99.90;;;;;;5004821;28;20082;-81
2021/04/07 00:17:51;;;;;;;5.47;2.47;;;0.60;99.90;;;;;;4989589;28;21513;-77
2021/04/07 00:20:19;;;;;;;4.28;2.53;;;0.60;99.90;;;;;;4999674;28;20027;-80
2021/04/07 00:22:44;;;;;;;6.95;2.88;;;0.70;99.90;;;;;;5001060;28;20105;-81
2021/04/07 00:25:11;;;;;;;9.80;2.65;;;0.60;99.90;;;;;;5002484;28;20148;-81
2021/04/07 00:27:40;;;;;;;6.38;2.75;;;0.70;99.90;;;;;;5019359;28;20057;-79
2021/04/07 00:30:07;;;;;;;6.82;2.42;;;0.70;99.90;;;;;;5026911;28;20054;-81
2021/04/07 00:32:32;;;;;;;4.57;2.15;;;0.70;99.90;;;;;;5005250;28;20033;-82
2021/04/07 00:34:58;;;;;;;7.72;2.38;;;0.60;99.90;;;;;;5005184;28;20052;-81
2021/04/07 00:37:24;;;;;;;4.70;2.30;;;0.60;99.90;;;;;;5001267;28;20033;-79
2021/04/07 00:39:50;;;;;;;4.45;2.03;;;0.60;99.90;;;;;;5004820;28;20050;-80
2021/04/07 00:42:15;;;;;;;5.32;2.15;;;0.60;99.90;;;;;;5007904;28;20539;-80
2021/04/07 00:44:41;;;;;;;3.65;2.10;;;0.60;99.90;;;;;;5001724;28;20034;-81
2021/04/07 00:47:07;;;;;;;5.97;2.50;;;0.60;99.90;;;;;;4998883;28;20044;-81
2021/04/07 00:49:32;;;;;;;3.58;2.15;;;0.60;99.90;;;;;;4999964;28;20041;-79
2021/04/07 00:51:58;;;;;;;8.35;2.60;;;0.70;99.90;;;;;;5001054;28;20066;-81
2021/04/07 00:54:23;;;;;;;5.45;2.50;;;0.70;99.90;;;;;;5005764;28;20493;-82
2021/04/07 00:56:50;;;;;;;4.32;2.45;;;0.70;99.90;;;;;;4999474;28;20080;-81
2021/04/07 00:59:18;;;;;;;11.95;3.38;;;0.80;99.90;;;;;;4999571;28;20056;-81
2021/04/07 01:01:44;;;;;;;6.05;2.65;;;0.80;99.90;;;;;;4998927;28;20037;-80
2021/04/07 01:04:11;;;;;;;7.97;2.85;;;0.70;99.90;;;;;;5003440;28;20045;-81
2021/04/07 01:06:39;;;;;;;12.73;2.67;;;0.70;99.90;;;;;;5004575;28;20107;-81
2021/04/07 01:09:05;;;;;;;7.78;2.50;;;0.70;99.90;;;;;;5003903;28;20033;-81
2021/04/07 01:11:30;;;;;;;6.15;2.75;;;0.70;99.90;;;;;;5001018;28;20045;-81
2021/04/07 01:13:56;;;;;;;10.63;3.20;;;0.70;99.90;;;;;;5004311;28;20473;-81
2021/04/07 01:16:22;;;;;;;6.18;2.72;;;0.90;99.90;;;;;;5002603;28;20053;-79
2021/04/07 01:18:48;;;;;;;12.57;3.30;;;0.70;99.90;;;;;;5002499;28;20030;-80
2021/04/07 01:21:13;;;;;;;8.38;2.67;;;0.70;99.90;;;;;;5002946;28;20036;-80
2021/04/07 01:23:44;;;;;;;9.75;3.08;;;0.60;99.90;;;;;;5002725;28;20536;-80
2021/04/07 01:26:11;;;;;;;6.53;2.92;;;0.60;99.90;;;;;;4987463;28;20029;-80
2021/04/07 01:28:37;;;;;;;7.47;3.05;;;0.50;99.90;;;;;;5003820;28;20464;-80
2021/04/07 01:31:02;;;;;;;7.18;2.97;;;0.50;99.90;;;;;;5001584;28;20061;-80
2021/04/07 01:33:28;;;;;;;7.20;2.55;;;0.50;99.90;;;;;;5010564;28;20054;-79
2021/04/07 01:35:54;;;;;;;8.70;3.22;;;0.40;99.90;;;;;;5009758;28;20077;-78
2021/04/07 01:38:20;;;;;;;7.40;3.00;;;0.40;99.90;;;;;;5000754;28;20046;-81
2021/04/07 01:40:46;;;;;;;13.25;2.92;;;0.40;99.90;;;;;;4999954;28;20028;-80
2021/04/07 01:43:16;;;;;;;10.75;3.47;;;0.40;99.90;;;;;;5000201;28;20029;-79
2021/04/07 01:45:44;;;;;;;6.90;3.13;;;0.40;99.90;;;;;;5013740;28;20335;-78
2021/04/07 01:48:12;;;;;;;15.18;3.78;;;0.30;99.90;;;;;;5014811;28;20168;-80
2021/04/07 01:50:40;;;;;;;10.75;3.17;;;0.30;99.90;;;;;;5015339;28;20045;-80
2021/04/07 01:53:05;;;;;;;9.77;3.85;;;0.30;99.90;;;;;;5009711;28;20108;-79
2021/04/07 01:55:31;;;;;;;9.27;3.42;;;0.30;99.90;;;;;;5011237;28;20022;-81
2021/04/07 01:57:57;;;;;;;8.93;3.80;;;0.30;99.90;;;;;;5011862;28;20022;-80
2021/04/07 02:00:23;;;;;;;14.20;3.70;;;0.30;99.90;;;;;;5014245;28;20531;-79
2021/04/07 02:02:48;;;;;;;9.25;4.10;;;0.30;99.90;;;;;;5010333;28;20177;-79
2021/04/07 02:05:15;;;;;;;12.88;4.28;;;0.20;99.90;;;;;;5010805;28;20085;-78
2021/04/07 02:07:41;;;;;;;9.32;3.50;;;0.30;99.90;;;;;;5007389;28;20390;-80
2021/04/07 02:10:09;;;;;;;10.52;4.13;;;0.30;99.90;;;;;;5000273;28;20027;-78
2021/04/07 02:12:34;;;;;;;11.55;3.65;;;0.20;99.90;;;;;;5021290;28;20041;-78
2021/04/07 02:15:04;;;;;;;7.97;3.80;;;0.30;99.90;;;;;;5013949;28;20030;-79
2021/04/07 02:17:30;;;;;;;6.15;3.15;;;0.30;99.90;;;;;;4999959;28;20036;-81
2021/04/07 02:19:55;;;;;;;9.13;3.65;;;0.30;99.90;;;;;;5003842;28;20030;-81
2021/04/07 02:22:21;;;;;;;10.38;4.35;;;0.20;99.90;;;;;;5004430;28;20057;-81
2021/04/07 02:24:49;;;;;;;14.45;4.57;;;0.30;99.90;;;;;;5008108;28;20030;-79
2021/04/07 02:27:23;;;;;;;11.05;4.00;;;0.20;99.90;;;;;;5003681;28;20046;-82
2021/04/07 02:29:50;;;;;;;12.18;4.95;;;0.20;99.90;;;;;;5003647;28;20078;-82
2021/04/07 02:32:16;;;;;;;7.82;3.97;;;0.20;99.90;;;;;;5008994;28;20029;-81
2021/04/07 02:34:42;;;;;;;7.50;4.15;;;0.10;99.90;;;;;;5007235;28;20030;-80
2021/04/07 02:37:12;;;;;;;7.18;4.30;;;0.20;99.90;;;;;;5005536;28;20446;-78
2021/04/07 02:39:38;;;;;;;8.13;4.38;;;0.10;99.90;;;;;;5007149;28;20034;-79
2021/04/07 02:42:04;;;;;;;7.97;4.25;;;0.20;99.90;;;;;;4994684;28;20041;-77
2021/04/07 02:44:29;;;;;;;7.65;4.47;;;0.20;99.90;;;;;;5000181;28;20030;-80
2021/04/07 02:46:55;;;;;;;7.57;3.97;;;0.10;99.90;;;;;;5003257;28;20101;-80
2021/04/07 02:49:21;;;;;;;10.02;4.47;;;0.10;99.90;;;;;;5003437;28;20026;-77
2021/04/07 02:51:46;;;;;;;9.02;5.18;;;0.20;99.90;;;;;;5007249;28;20018;-78
2021/04/07 02:54:12;;;;;;;10.45;4.15;;;0.20;99.90;;;;;;5011622;28;20026;-78
2021/04/07 02:56:38;;;;;;;10.13;4.78;;;0.20;99.90;;;;;;5009749;28;20030;-78
2021/04/07 02:59:04;;;;;;;10.90;4.88;;;0.20;99.90;;;;;;5009403;28;20085;-78
2021/04/07 03:01:29;;;;;;;11.02;4.75;;;0.30;99.90;;;;;;5002851;28;20072;-80
2021/04/07 03:03:55;;;;;;;13.52;5.20;;;0.30;99.90;;;;;;5003343;28;20159;-80
2021/04/07 03:06:21;;;;;;;12.65;5.05;;;0.40;99.90;;;;;;5011104;28;20128;-78
2021/04/07 03:08:47;;;;;;;9.68;4.55;;;0.40;99.90;;;;;;5010860;28;20534;-77
2021/04/07 03:11:13;;;;;;;7.03;3.80;;;0.40;99.90;;;;;;5014777;28;20026;-77
2021/04/07 03:13:38;;;;;;;16.50;4.93;;;0.40;99.90;;;;;;5010165;28;20033;-79
2021/04/07 03:16:04;;;;;;;7.40;4.53;;;0.50;99.90;;;;;;5000374;28;20026;-79
2021/04/07 03:18:30;;;;;;;7.55;4.18;;;0.50;99.90;;;;;;5009664;28;20448;-80
2021/04/07 03:20:55;;;;;;;12.93;4.03;;;0.60;99.90;;;;;;5012897;28;20022;-78
2021/04/07 03:23:21;;;;;;;8.55;4.45;;;0.50;99.90;;;;;;5030227;28;20018;-78
2021/04/07 03:25:46;;;;;;;15.73;3.63;;;0.60;99.90;;;;;;5017900;28;20053;-80
2021/04/07 03:28:12;;;;;;;10.45;4.43;;;0.60;99.90;;;;;;5011244;28;20030;-78
2021/04/07 03:30:50;;;;;;;12.30;4.60;;;0.60;99.90;;;;;;5015889;28;20040;-78
2021/04/07 03:33:27;;;;;;;6.88;3.85;;;0.60;99.90;;;;;;5006957;28;20097;-79
2021/04/07 03:35:53;;;;;;;8.13;3.90;;;0.70;99.90;;;;;;5007145;28;20022;-78
2021/04/07 03:38:19;;;;;;;7.25;3.53;;;0.70;99.90;;;;;;5011072;28;20026;-78
2021/04/07 03:40:46;;;;;;;8.88;4.03;;;0.60;99.90;;;;;;5011429;28;20253;-80
2021/04/07 03:43:17;;;;;;;9.68;3.63;;;0.60;99.90;;;;;;5007537;28;20079;-80
2021/04/07 03:45:44;;;;;;;13.43;4.53;;;0.60;99.90;;;;;;5000218;28;20049;-80
2021/04/07 03:48:11;;;;;;;9.73;3.15;;;0.60;99.90;;;;;;5000957;28;20026;-80
2021/04/07 03:50:38;;;;;;;7.15;3.20;;;0.60;99.90;;;;;;5001695;28;20117;-81
2021/04/07 03:53:04;;;;;;;12.63;4.53;;;0.70;99.90;;;;;;5002233;28;20022;-80
2021/04/07 03:55:29;;;;;;;10.55;3.30;;;0.70;99.90;;;;;;5003259;28;20170;-80
2021/04/07 03:57:55;;;;;;;18.83;3.97;;;0.70;99.90;;;;;;5002216;28;20084;-80
2021/04/07 04:00:21;;;;;;;8.40;3.50;;;0.70;99.90;;;;;;5003994;28;20018;-80
2021/04/07 04:02:46;;;;;;;9.93;3.85;;;0.70;99.90;;;;;;5017953;28;20533;-79
2021/04/07 04:05:12;;;;;;;9.15;3.78;;;0.70;99.90;;;;;;5007597;28;20025;-79
2021/04/07 04:07:38;;;;;;;9.70;3.00;;;0.70;99.90;;;;;;5000715;28;20033;-79
2021/04/07 04:10:04;;;;;;;10.85;3.60;;;0.70;99.90;;;;;;4999406;28;20036;-80
2021/04/07 04:12:30;;;;;;;11.25;3.58;;;0.70;99.90;;;;;;5001427;28;20175;-80
2021/04/07 04:14:56;;;;;;;5.28;3.42;;;0.70;99.90;;;;;;5001681;28;20042;-80
2021/04/07 04:17:21;;;;;;;8.73;2.75;;;0.70;99.90;;;;;;5004348;28;20036;-78
2021/04/07 04:19:48;;;;;;;5.63;2.67;;;0.70;99.90;;;;;;5017740;28;20029;-80
2021/04/07 04:22:14;;;;;;;11.90;3.47;;;0.70;99.90;;;;;;5003649;28;20488;-79
2021/04/07 04:24:40;;;;;;;3.60;2.38;;;0.70;99.90;;;;;;4999301;28;20084;-79
2021/04/07 04:27:06;;;;;;;14.75;2.95;;;0.70;99.90;;;;;;4996861;28;20501;-80
2021/04/07 04:29:32;;;;;;;5.40;2.67;;;0.70;99.90;;;;;;4998889;28;20520;-80
2021/04/07 04:31:57;;;;;;;3.42;2.80;;;0.80;99.90;;;;;;5002863;28;20042;-80
2021/04/07 04:34:23;;;;;;;8.20;2.65;;;0.70;99.90;;;;;;4996027;28;20405;-80
2021/04/07 04:36:48;;;;;;;4.70;2.72;;;0.80;99.90;;;;;;5005162;28;20026;-78
2021/04/07 04:39:14;;;;;;;14.48;3.78;;;0.80;99.90;;;;;;5006140;28;20085;-80
2021/04/07 04:41:39;;;;;;;7.63;3.25;;;0.80;99.90;;;;;;5000861;28;20061;-79
2021/04/07 04:44:05;;;;;;;12.93;3.35;;;0.80;99.90;;;;;;4996525;28;20022;-80
2021/04/07 04:46:31;;;;;;;6.55;2.88;;;0.80;99.90;;;;;;5001667;28;20096;-78
2021/04/07 04:48:57;;;;;;;10.02;2.63;;;0.70;99.90;;;;;;5002734;28;20037;-80
2021/04/07 04:51:22;;;;;;;9.85;2.97;;;0.70;99.90;;;;;;5002452;28;20137;-81
2021/04/07 04:53:48;;;;;;;5.97;2.65;;;0.90;99.90;;;;;;4998399;28;20065;-80
2021/04/07 04:56:13;;;;;;;8.45;2.88;;;0.80;99.90;;;;;;5004003;28;20032;-81
2021/04/07 04:58:39;;;;;;;7.65;2.75;;;0.80;99.90;;;;;;5001563;28;20067;-81
2021/04/07 05:01:05;;;;;;;8.20;2.63;;;0.80;99.90;;;;;;5027403;28;20046;-77
2021/04/07 05:03:30;;;;;;;6.47;2.40;;;0.80;99.90;;;;;;5017323;28;20022;-79
2021/04/07 05:05:56;;;;;;;4.85;2.40;;;0.80;99.90;;;;;;5010686;28;20030;-78
2021/04/07 05:08:22;;;;;;;4.55;2.53;;;0.80;99.90;;;;;;5026356;28;20018;-80
2021/04/07 05:10:48;;;;;;;13.00;3.00;;;0.80;99.90;;;;;;5011560;28;20030;-81
2021/04/07 05:13:14;;;;;;;11.60;3.25;;;0.80;99.90;;;;;;5002221;28;20040;-81
2021/04/07 05:15:39;;;;;;;8.52;2.80;;;0.90;99.90;;;;;;5001118;28;20408;-78
2021/04/07 05:18:12;;;;;;;8.43;2.92;;;0.90;99.90;;;;;;5012465;28;20025;-80
2021/04/07 05:20:38;;;;;;;9.13;2.55;;;0.90;99.90;;;;;;5015645;28;20042;-79
2021/04/07 05:23:04;;;;;;;10.18;3.08;;;0.90;99.90;;;;;;5008922;28;20057;-80
2021/04/07 05:25:30;;;;;;;12.60;2.38;;;0.90;99.90;;;;;;5015269;28;20030;-81
2021/04/07 05:27:55;;;;;;;4.38;2.00;;;1.00;99.90;;;;;;5008734;28;20539;-82
2021/04/07 05:30:21;;;;;;;7.43;2.47;;;1.00;99.90;;;;;;5007785;28;20030;-82
2021/04/07 05:32:47;;;;;;;5.78;2.30;;;0.90;99.90;;;;;;5005792;28;20022;-81
2021/04/07 05:35:12;;;;;;;11.15;3.40;;;1.00;99.90;;;;;;5009964;28;20056;-82
2021/04/07 05:37:38;;;;;;;6.80;2.35;;;1.00;99.90;;;;;;4997994;28;20394;-82
2021/04/07 05:40:04;;;;;;;10.65;3.03;;;0.90;99.90;;;;;;5007790;28;20048;-82
2021/04/07 05:42:30;;;;;;;12.55;2.53;;;0.90;99.90;;;;;;5000558;28;20029;-82
2021/04/07 05:44:55;;;;;;;7.25;2.33;;;0.90;99.90;;;;;;5005531;28;20040;-80
2021/04/07 05:47:21;;;;;;;7.47;2.13;;;0.90;99.90;;;;;;4998964;28;20109;-81
2021/04/07 05:49:46;;;;;;;5.80;2.97;;;0.90;99.90;;;;;;5001807;28;20030;-82
2021/04/07 05:52:14;;;;;;;3.90;2.20;;;0.90;99.90;;;;;;5001528;28;20116;-82
2021/04/07 05:54:39;;;;;;;9.10;2.30;;;0.90;99.90;;;;;;5006742;28;20125;-82
2021/04/07 05:57:05;;;;;;;11.95;2.88;;;1.00;99.90;;;;;;5009732;28;20066;-81
2021/04/07 05:59:31;;;;;;;11.23;2.80;;;1.00;99.90;;;;;;5010249;28;20068;-82
2021/04/07 06:01:56;;;;;;;9.35;2.40;;;1.00;99.90;;;;;;5006278;28;20040;-81
2021/04/07 06:04:22;;;;;;;8.10;2.75;;;1.00;99.90;;;;;;5000673;28;20040;-80
2021/04/07 06:06:47;;;;;;;7.63;2.63;;;1.00;99.90;;;;;;4992290;28;20033;-80
2021/04/07 06:09:13;;;;;;;11.32;2.47;;;1.00;99.90;;;;;;5009462;28;20087;-81
2021/04/07 06:11:39;;;;;;;8.35;2.65;;;1.00;99.90;;;;;;5014119;28;20489;-80
2021/04/07 06:14:04;;;;;;;11.98;2.72;;;1.00;99.90;;;;;;5007765;28;20022;-80
2021/04/07 06:16:30;;;;;;;7.53;2.65;;;1.00;99.90;;;;;;5010164;28;20029;-81
2021/04/07 06:18:55;;;;;;;8.85;2.92;;;1.00;99.90;;;;;;5010051;28;20772;-81
2021/04/07 06:21:21;;;;;;;10.65;2.85;;;1.10;99.90;;;;;;5003757;28;20033;-81
2021/04/07 06:23:46;;;;;;;4.10;2.05;;;1.10;98.30;;;;;;5004036;28;20030;-81
2021/04/07 06:26:12;;;;;;;9.93;2.67;;;1.20;99.20;;;;;;5006415;28;20315;-81
2021/04/07 06:28:38;;;;;;;18.98;2.88;;;1.30;98.70;;;;;;5002459;28;20048;-81
2021/04/07 06:31:03;;;;;;;6.95;2.65;;;1.40;97.10;;;;;;5005436;28;20036;-81
2021/04/07 06:33:32;;;;;;;16.13;2.67;;;1.50;96.20;;;;;;5004195;28;20026;-80
2021/04/07 06:36:06;;;;;;;13.02;2.72;;;1.70;95.50;;;;;;5009490;28;20037;-81
2021/04/07 06:38:32;;;;;;;8.97;2.93;;;1.90;94.40;;;;;;5005120;28;20039;-82
2021/04/07 06:40:59;;;;;;;8.50;2.00;;;1.90;91.00;;;;;;5006744;28;20300;-82
2021/04/07 06:43:26;;;;;;;6.63;1.88;;;1.80;91.10;;;;;;5007381;28;20481;-83
2021/04/07 06:45:52;;;;;;;11.73;2.60;;;2.00;93.40;;;;;;5004911;28;20477;-82
2021/04/07 06:48:19;;;;;;;5.13;1.85;;;2.00;91.90;;;;;;5010164;28;20037;-82
2021/04/07 06:50:48;;;;;;;11.32;1.73;;;1.90;90.40;;;;;;5001250;28;20030;-82
2021/04/07 06:53:16;;;;;;;9.45;2.45;;;2.00;91.30;;;;;;5008836;28;20036;-79
2021/04/07 06:55:42;;;;;;;12.80;1.98;;;2.10;90.20;;;;;;5001748;28;20045;-81
2021/04/07 06:58:09;;;;;;;10.98;1.80;;;2.10;89.60;;;;;;5002356;28;20034;-82
2021/04/07 07:00:36;;;;;;;6.20;2.10;;;2.10;88.20;;;;;;5005197;28;20041;-83
2021/04/07 07:03:09;;;;;;;5.82;1.80;;;2.10;87.10;;;;;;5020559;28;20037;-81
2021/04/07 07:05:37;;;;;;;13.23;2.03;;;2.00;88.60;;;;;;5002216;28;20032;-83
2021/04/07 07:08:05;;;;;;;8.65;1.80;;;2.00;87.40;;;;;;5005541;28;20160;-82
2021/04/07 07:10:42;;;;;;;6.93;2.30;;;2.00;86.20;;;;;;5006746;28;20030;-83
2021/04/07 07:13:09;;;;;;;11.32;2.05;;;2.10;87.40;;;;;;5009285;28;20038;-83
2021/04/07 07:15:36;;;;;;;8.65;1.92;;;2.20;86.70;;;;;;5005668;28;20026;-83
2021/04/07 07:18:02;;;;;;;17.42;2.00;;;2.30;88.00;;;;;;4998854;28;20030;-83
2021/04/07 07:20:30;;;;;;;5.70;2.05;;;2.40;86.80;;;;;;5000642;28;20037;-83
2021/04/07 07:22:55;;;;;;;7.57;1.83;;;2.30;87.30;;;;;;5003191;28;20697;-83
2021/04/07 07:25:21;;;;;;;9.70;1.60;;;2.20;85.90;;;;;;5010411;28;20037;-82
2021/04/07 07:27:47;;;;;;;6.60;2.30;;;2.10;83.20;;;;;;5003429;28;20030;-81
2021/04/07 07:30:14;;;;;;;4.45;1.75;;;2.30;84.40;;;;;;5001781;28;20046;-81
2021/04/07 07:32:41;;;;;;;10.20;1.55;;;2.30;84.10;;;;;;5002834;28;20037;-83
2021/04/07 07:35:16;;;;;;;9.32;1.80;;;2.20;81.00;;;;;;5008111;28;20128;-82
2021/04/07 07:37:42;;;;;;;;;;;2.20;81.10;;;;;;5001971;28;20037;-82
2021/04/07 07:40:21;;;;;;;11.30;2.00;;;2.50;81.60;;;;;;5005978;28;19952;-81
2021/04/07 07:42:47;;;;;;;5.35;1.65;;;2.80;79.30;;;;;;5003593;28;20038;-81
2021/04/07 07:45:14;;;;;;;11.88;1.60;;;2.90;79.80;;;;;;5000947;28;20073;-82
2021/04/07 07:47:44;;;;;;;3.83;1.50;;;3.00;78.00;;;;;;4998718;28;20041;-81
2021/04/07 07:50:12;;;;;;;13.40;1.67;;;3.10;76.40;;;;;;4996297;28;20838;-81
2021/04/07 07:52:41;;;;;;;10.07;1.73;;;2.90;74.40;;;;;;5002430;28;20033;-81
2021/04/07 07:55:18;;;;;;;5.63;1.52;;;2.90;76.80;;;;;;5002846;28;20056;-81
2021/04/07 07:57:55;;;;;;;4.43;1.38;;;3.00;74.30;;;;;;4998537;28;20061;-82
2021/04/07 08:00:22;;;;;;;7.68;1.70;;;2.70;75.50;;;;;;4999563;28;20077;-82
2021/04/07 08:02:48;;;;;;;3.97;1.67;;;2.80;75.80;;;;;;5001381;28;20034;-81
2021/04/07 08:05:18;;;;;;;6.70;1.63;;;2.80;76.80;;;;;;4998756;28;20033;-79
2021/04/07 08:07:44;;;;;;;4.55;1.70;;;2.90;75.30;;;;;;5003093;28;20394;-81
2021/04/07 08:10:11;;;;;;;4.80;1.90;;;3.10;75.80;;;;;;5002469;28;20085;-80
2021/04/07 08:12:38;;;;;;;5.70;1.45;;;2.60;74.30;;;;;;5001962;28;20053;-80
2021/04/07 08:15:05;;;;;;;7.20;1.73;;;2.40;76.00;;;;;;5005606;28;20685;-83
2021/04/07 08:17:32;;;;;;;2.30;1.13;;;2.80;74.10;;;;;;5000954;28;20019;-85
2021/04/07 08:20:00;;;;;;;6.82;1.60;;;3.00;73.30;;;;;;5006780;28;20034;-82
2021/04/07 08:22:31;;;;;;;6.97;1.75;;;3.40;74.90;;;;;;5016428;28;20022;-81
2021/04/07 08:24:58;;;;;;;3.70;1.45;;;3.60;73.60;;;;;;5019334;28;20061;-83
2021/04/07 08:27:25;;;;;;;11.30;1.67;;;3.40;71.50;;;;;;5042115;23;20038;-73
2021/04/07 08:29:51;;;;;;;12.45;1.63;;;3.40;74.60;;;;;;5002147;28;20030;-73
2021/04/07 08:32:21;;;;;;;2.85;1.00;;;3.30;72.10;;;;;;5008178;28;20089;-74
2021/04/07 08:34:48;;;;;;;12.95;1.50;;;3.20;72.40;;;;;;5003978;28;20545;-73
2021/04/07 08:37:23;;;;;;;12.95;1.58;;;3.40;73.60;;;;;;5003867;28;20037;-73
2021/04/07 08:39:49;;;;;;;9.60;1.65;;;3.30;77.40;;;;;;5001472;28;20443;-74
2021/04/07 08:42:15;;;;;;;3.45;1.23;;;3.20;76.80;;;;;;5000973;28;20357;-74
2021/04/07 08:44:46;;;;;;;5.97;1.52;;;3.00;75.20;;;;;;5001713;28;20221;-72
2021/04/07 08:47:29;;;;;;;5.25;1.70;;;3.40;80.50;;;;;;5004479;28;20167;-73
2021/04/07 08:50:06;;;;;;;5.15;1.50;;;3.30;76.90;;;;;;5002151;28;20023;-74
2021/04/07 08:52:41;;;;;;;9.65;1.52;;;3.70;75.50;;;;;;5004157;28;20030;-73
2021/04/07 08:55:14;;;;;;;4.10;1.75;;;3.50;74.80;;;;;;5003500;28;20025;-75
2021/04/07 08:57:40;;;;;;;6.88;1.58;;;4.00;74.20;;;;;;4998699;28;20054;-73
2021/04/07 09:00:16;;;;;;;8.00;1.92;;;4.30;70.10;;;;;;5004378;28;20021;-72
2021/04/07 09:02:53;;;;;;;6.57;1.35;;;4.30;73.20;;;;;;5000689;28;20631;-74
2021/04/07 09:05:30;;;;;;;4.57;1.60;;;3.50;70.90;;;;;;5001863;28;20026;-75
2021/04/07 09:07:57;;;;;;;5.53;1.65;;;3.40;74.50;;;;;;5000384;28;20049;-73
2021/04/07 09:10:23;;;;;;;4.20;1.73;;;3.30;76.50;;;;;;5000540;28;20032;-74
2021/04/07 09:12:52;;;;;;;4.43;1.73;;;2.80;81.70;;;;;;5001269;28;20029;-75
2021/04/07 09:15:25;;;;;;;4.20;1.98;;;2.90;85.10;;;;;;5000611;28;20038;-74
2021/04/07 09:17:51;;;;;;;5.72;2.35;;;2.80;84.90;;;;;;4999965;28;20030;-75
2021/04/07 09:20:40;;;;;;;7.43;2.15;;;3.20;87.00;;;;;;5002057;28;20456;-75
2021/04/07 09:23:26;;;;;;;7.88;1.70;;;3.20;85.90;;;;;;5003722;28;20026;-72
2021/04/07 09:26:22;;;;;;;4.68;2.13;;;3.10;86.00;;;;;;5003499;28;20505;-74
2021/04/07 09:28:52;;;;;;;10.32;1.70;;;3.10;84.70;;;;;;5000611;28;20070;-73
2021/04/07 09:31:18;;;;;;;3.90;1.30;;;3.20;81.80;;;;;;4999521;28;20125;-74
2021/04/07 09:33:47;;;;;;;5.47;2.08;;;3.00;80.20;;;;;;5004449;28;20155;-75
2021/04/07 09:36:14;;;;;;;9.45;2.08;;;3.10;83.30;;;;;;5002058;28;20026;-75
2021/04/07 09:38:48;;;;;;;5.78;2.35;;;3.50;81.10;;;;;;5017193;28;20050;-75
2021/04/07 09:41:26;;;;;;;11.10;2.30;;;3.60;80.40;;;;;;5001057;28;20026;-74
2021/04/07 09:43:53;;;;;;;4.45;1.77;;;3.70;79.10;;;;;;5006906;28;20022;-73
2021/04/07 09:46:20;;;;;;;8.20;2.22;;;3.80;74.80;;;;;;5006992;28;20117;-73
2021/04/07 09:48:59;;;;;;;3.97;2.17;;;4.30;77.60;;;;;;5003737;28;20030;-73
2021/04/07 09:51:45;;;;;;;6.45;2.30;;;5.40;70.70;;;;;;4998679;28;20027;-75
2021/04/07 09:54:13;;;;;;;7.13;2.03;;;5.70;62.90;;;;;;5003152;28;20053;-73
2021/04/07 09:57:00;;;;;;;6.10;1.88;;;6.30;63.90;;;;;;4997456;28;20402;-73
2021/04/07 09:59:31;;;;;;;3.45;1.27;;;7.60;62.60;;;;;;4991381;28;20462;-73
2021/04/07 10:01:57;;;;;;;4.82;2.00;;;6.80;52.50;;;;;;5008712;28;20100;-73
2021/04/07 10:04:31;;;;;;;4.72;1.48;;;6.90;56.20;;;;;;5004686;28;20130;-73
2021/04/07 10:07:11;;;;;;;9.27;2.25;;;6.70;55.60;;;;;;5003450;28;20065;-73
2021/04/07 10:09:38;;;;;;;3.30;1.35;;;5.80;55.30;;;;;;5006537;28;20036;-73
2021/04/07 10:12:06;;;;;;;5.38;2.10;;;5.50;60.10;;;;;;5005108;28;20079;-73
2021/04/07 10:14:31;;;;;;;7.63;1.70;;;5.10;58.70;;;;;;5006672;28;20476;-73
2021/04/07 10:16:57;;;;;;;7.20;1.60;;;5.30;58.90;;;;;;5003883;28;20076;-73
2021/04/07 10:19:29;;;;;;;4.43;1.90;;;5.70;61.70;;;;;;5006324;28;20090;-73
2021/04/07 10:22:00;;;;;;;5.65;1.58;;;5.60;60.00;;;;;;5005638;28;20042;-73
2021/04/07 10:24:26;;;;;;;7.47;2.05;;;5.20;59.40;;;;;;5001476;28;20117;-73
2021/04/07 10:26:52;;;;;;;12.18;2.20;;;5.20;60.70;;;;;;5016718;28;20042;-74
2021/04/07 10:29:23;;;;;;;7.78;2.08;;;4.80;63.70;;;;;;5023560;28;20064;-74
2021/04/07 10:31:56;;;;;;;8.18;2.85;;;4.60;66.10;;;;;;5002171;28;20038;-74
2021/04/07 10:34:35;;;;;;;10.43;2.50;;;4.30;67.80;;;;;;5006224;28;20022;-73
2021/04/07 10:37:02;;;;;;;15.85;2.28;;;4.30;70.30;;;;;;5019425;28;20030;-73
2021/04/07 10:39:39;;;;;;;5.95;2.25;;;4.40;70.20;;;;;;5007825;28;20029;-73
2021/04/07 10:42:09;;;;;;;11.20;2.50;;;4.60;69.20;;;;;;5006064;28;20099;-74
2021/04/07 10:44:35;;;;;;;5.95;1.75;;;4.90;68.10;;;;;;5008285;28;20076;-74
2021/04/07 10:47:02;;;;;;;8.23;2.42;;;4.50;68.00;;;;;;5002105;28;20440;-73
2021/04/07 10:49:28;;;;;;;7.82;1.58;;;4.60;67.30;;;;;;5005817;28;20018;-73
2021/04/07 10:52:01;;;;;;;5.63;1.77;;;4.70;65.20;;;;;;5001128;28;20133;-73
2021/04/07 10:54:27;;;;;;;4.22;1.67;;;4.90;62.50;;;;;;5001496;28;20394;-75
2021/04/07 10:57:06;;;;;;;7.82;1.77;;;4.80;60.20;;;;;;5003671;28;20038;-73
2021/04/07 10:59:32;;;;;;;5.53;1.67;;;5.10;60.30;;;;;;5005057;28;20033;-73
2021/04/07 11:01:59;;;;;;;7.80;1.75;;;5.70;56.90;;;;;;5011230;28;20037;-75
2021/04/07 11:04:32;;;;;;;2.80;1.55;;;5.80;53.90;;;;;;5003490;28;20093;-74
2021/04/07 11:07:02;;;;;;;6.93;1.75;;;6.50;54.60;;;;;;5000005;28;20033;-72
2021/04/07 11:09:39;;;;;;;7.20;1.40;;;6.10;49.70;;;;;;5004139;28;20033;-74
2021/04/07 11:12:06;;;;;;;4.40;1.50;;;5.50;50.10;;;;;;5001731;28;20034;-72
2021/04/07 11:14:32;;;;;;;5.93;1.35;;;6.20;49.70;;;;;;5007373;28;20064;-75
2021/04/07 11:17:00;;;;;;;5.10;1.40;;;6.30;46.50;;;;;;4999856;28;20198;-74
2021/04/07 11:19:37;;;;;;;6.15;1.35;;;5.90;49.90;;;;;;5008040;28;20030;-74
2021/04/07 11:22:04;;;;;;;5.72;1.17;;;5.80;50.50;;;;;;5006255;28;20068;-74
2021/04/07 11:24:31;;;;;;;3.60;1.33;;;6.40;50.10;;;;;;5009488;28;20034;-74
2021/04/07 11:26:57;;;;;;;7.70;1.70;;;6.00;47.70;;;;;;5009580;28;20038;-74
2021/04/07 11:29:22;;;;;;;6.32;1.65;;;6.50;49.00;;;;;;5004791;28;20057;-74
2021/04/07 11:31:52;;;;;;;3.60;1.13;;;6.70;43.80;;;;;;5009928;28;21497;-74
2021/04/07 11:34:23;;;;;;;4.25;1.30;;;7.10;43.60;;;;;;5003507;28;20100;-74
2021/04/07 11:37:07;;;;;;;4.75;1.48;;;7.50;41.80;;;;;;5004816;28;20041;-73
2021/04/07 11:39:41;;;;;;;6.72;1.52;;;8.10;39.20;;;;;;4999649;28;20026;-73
2021/04/07 11:42:16;;;;;;;5.90;1.55;;;8.20;34.60;;;;;;4999841;28;20138;-73
2021/04/07 11:44:41;;;;;;;8.77;1.48;;;8.40;36.00;;;;;;5002845;28;20029;-73
2021/04/07 11:47:07;;;;;;;7.00;1.50;;;9.30;30.00;;;;;;4998838;28;20505;-73
2021/04/07 11:49:35;;;;;;;6.10;1.85;;;9.50;26.40;;;;;;5008619;28;20598;-73
2021/04/07 11:52:01;;;;;;;5.05;1.52;;;9.70;30.20;;;;;;5005347;28;20415;-74
2021/04/07 11:54:26;;;;;;;6.10;1.42;;;9.70;29.30;;;;;;5007316;28;20032;-74
2021/04/07 11:56:52;;;;;;;6.53;1.70;;;9.40;28.70;;;;;;5004083;28;20101;-74
2021/04/07 11:59:20;;;;;;;3.85;1.25;;;8.10;29.30;;;;;;5007191;28;20040;-74
2021/04/07 12:01:47;;;;;;;5.95;1.50;;;6.80;29.70;;;;;;5005730;28;20459;-74
2021/04/07 12:04:13;;;;;;;6.20;1.45;;;6.90;33.90;;;;;;5004102;28;20111;-74
2021/04/07 12:06:39;;;;;;;7.18;1.63;;;6.20;33.20;;;;;;5008708;28;20063;-74
2021/04/07 12:09:05;;;;;;;2.75;1.13;;;6.00;37.60;;;;;;5002210;28;20034;-74
2021/04/07 12:11:31;;;;;;;6.30;1.40;;;5.60;35.30;;;;;;5005842;28;20037;-74
2021/04/07 12:13:57;;;;;;;6.97;1.83;;;5.90;38.10;;;;;;5004778;28;20033;-73
2021/04/07 12:16:23;;;;;;;8.23;1.40;;;5.90;37.20;;;;;;5008384;28;20038;-73
2021/04/07 12:18:48;;;;;;;8.75;1.73;;;5.30;39.60;;;;;;5006340;28;20027;-74
2021/04/07 12:21:15;;;;;;;6.60;1.70;;;5.60;41.40;;;;;;5007556;28;20442;-74
2021/04/07 12:23:41;;;;;;;8.75;1.92;;;5.30;42.40;;;;;;5005902;28;20052;-74
2021/04/07 12:26:07;;;;;;;7.65;1.55;;;5.50;43.40;;;;;;5002778;28;20025;-74
2021/04/07 12:28:34;;;;;;;6.20;1.33;;;5.70;43.30;;;;;;5005373;28;20129;-74
2021/04/07 12:31:00;;;;;;;6.40;1.67;;;5.90;43.20;;;;;;4996622;28;20382;-74
2021/04/07 12:33:27;;;;;;;5.85;1.98;;;5.70;43.40;;;;;;5002669;28;20030;-74
2021/04/07 12:36:12;;;;;;;5.82;1.17;;;5.70;43.80;;;;;;4996146;28;20109;-74
2021/04/07 12:38:37;;;;;;;5.13;1.27;;;6.10;43.90;;;;;;4999587;28;20060;-73
2021/04/07 12:41:10;;;;;;;4.68;1.35;;;6.10;41.10;;;;;;5004950;28;20061;-75
2021/04/07 12:43:36;;;;;;;7.30;1.45;;;6.20;41.40;;;;;;4997816;28;20085;-75
2021/04/07 12:46:01;;;;;;;7.55;1.10;;;6.10;40.20;;;;;;4999899;28;20034;-74
2021/04/07 12:48:27;;;;;;;4.18;0.90;;;6.00;41.30;;;;;;5004348;28;20038;-74
2021/04/07 12:50:53;;;;;;;3.65;0.93;;;6.10;40.20;;;;;;4999838;28;20610;-75
2021/04/07 12:53:19;;;;;;;8.85;1.45;;;6.30;43.00;;;;;;4992323;28;20192;-74
2021/04/07 12:55:44;;;;;;;5.90;1.17;;;6.50;42.10;;;;;;4997802;28;20026;-73
2021/04/07 12:58:10;;;;;;;3.20;1.00;;;6.50;41.70;;;;;;5001267;28;20561;-73